Terminal Aerodrome Forecast
Issued by NWS Charleston, WV

Current Version | Previous Version | Graphics & Text | Print | Product List | Glossary On
Versions: 1 2 3 4 5 6 7 8 9 10 11 12 13 14 15 16 17 18 19 20 21 22 23 24 25
000
FTUS41 KRLX 190936 AAB
TAFCRW
TAF AMD
KCRW 190936Z 1910/2006 00000KT 3SM BR SCT001 SCT050
      TEMPO 1910/1912 1SM BR BKN001
     FM191300 00000KT P6SM SCT200
     FM191400 21002KT P6SM SCT150 BKN200
     FM191900 25005KT P6SM BKN100=

USA.gov is the U.S. government's official web portal to all federal, state and local government web resources and services.